Time;durP1;ratioP1;P1;durP2;ratioP2;P2;SDS_P1;SDS_P2;PMS_P1;PMS_P2;Temp;Humidity;BMP_temperature;BMP_pressure;BME280_temperature;BME280_humidity;BME280_pressure;Samples;Min_cycle;Max_cycle;Signal;HPM_P1;HPM_P2
2022/01/30 00:00:27;;;;;;;20.97;5.63;;;;;;;;;;2083887;28;20227;-62
2022/01/30 00:01:27;;;;;;;15.30;5.87;;;;;;;;;;2084431;28;20205;-59
2022/01/30 00:02:28;;;;;;;16.27;5.27;;;;;;;;;;2083681;28;20164;-60
2022/01/30 00:03:28;;;;;;;15.07;5.63;;;;;;;;;;2082672;28;20276;-62
2022/01/30 00:04:28;;;;;;;17.07;5.70;;;;;;;;;;2084416;28;20176;-59
2022/01/30 00:05:30;;;;;;;15.40;5.47;;;;;;;;;;2079442;28;20196;-58
2022/01/30 00:06:30;;;;;;;15.13;5.17;;;;;;;;;;2082891;28;20173;-59
2022/01/30 00:07:31;;;;;;;13.88;5.07;;;;;;;;;;2083381;28;20200;-55
2022/01/30 00:08:31;;;;;;;19.07;5.20;;;;;;;;;;2083173;28;20258;-56
2022/01/30 00:09:31;;;;;;;16.07;5.53;;;;;;;;;;2081734;28;20236;-61
2022/01/30 00:10:37;;;;;;;16.00;5.03;;;;;;;;;;2072934;28;20208;-60
2022/01/30 00:11:40;;;;;;;14.73;4.37;;;;;;;;;;2080195;28;20640;-61
2022/01/30 00:12:52;;;;;;;12.80;5.43;;;;;;;;;;2081752;28;20176;-60
2022/01/30 00:13:52;;;;;;;11.13;4.57;;;;;;;;;;2081596;28;20173;-60
2022/01/30 00:14:55;;;;;;;12.88;5.18;;;;;;;;;;2081004;28;20267;-60
2022/01/30 00:15:56;;;;;;;12.10;4.23;;;;;;;;;;2081157;28;20251;-62
2022/01/30 00:17:02;;;;;;;12.30;4.50;;;;;;;;;;2078917;28;20177;-60
2022/01/30 00:18:39;;;;;;;10.77;4.43;;;;;;;;;;2080839;28;20159;-62
2022/01/30 00:19:36;;;;;;;12.57;4.70;;;;;;;;;;2079807;28;20172;-59
2022/01/30 00:20:39;;;;;;;13.63;5.03;;;;;;;;;;2080662;28;20544;-56
2022/01/30 00:21:45;;;;;;;16.67;6.03;;;;;;;;;;2080581;28;20247;-61
2022/01/30 00:23:07;;;;;;;10.93;4.70;;;;;;;;;;2081328;28;20211;-60
2022/01/30 00:24:54;;;;;;;13.13;4.57;;;;;;;;;;2080412;28;20176;-62
2022/01/30 00:25:43;;;;;;;12.37;3.93;;;;;;;;;;2073616;28;20188;-61
2022/01/30 00:26:46;;;;;;;16.90;5.30;;;;;;;;;;2080727;28;20258;-62
2022/01/30 00:28:02;;;;;;;17.53;5.57;;;;;;;;;;2074495;28;20223;-61
2022/01/30 00:29:04;;;;;;;14.03;4.30;;;;;;;;;;2082493;28;20659;-60
2022/01/30 00:30:05;;;;;;;12.60;5.20;;;;;;;;;;2082241;28;20176;-56
2022/01/30 00:31:05;;;;;;;14.60;4.67;;;;;;;;;;2104733;22;20208;-55
2022/01/30 00:32:06;;;;;;;17.33;5.03;;;;;;;;;;2083853;28;20242;-55
2022/01/30 00:33:06;;;;;;;14.30;4.83;;;;;;;;;;2080970;28;20237;-57
2022/01/30 00:34:06;;;;;;;16.77;4.63;;;;;;;;;;2090451;28;20178;-56
2022/01/30 00:35:09;;;;;;;15.80;5.50;;;;;;;;;;2088608;28;20191;-55
2022/01/30 00:36:09;;;;;;;15.33;5.13;;;;;;;;;;2086601;28;20274;-57
2022/01/30 00:37:09;;;;;;;12.47;5.27;;;;;;;;;;2082170;28;20165;-57
2022/01/30 00:38:15;;;;;;;10.27;4.10;;;;;;;;;;2089966;28;20278;-56
2022/01/30 00:39:15;;;;;;;15.60;5.53;;;;;;;;;;2090513;28;20194;-54
2022/01/30 00:40:16;;;;;;;13.43;5.13;;;;;;;;;;2090071;28;20172;-59
2022/01/30 00:41:16;;;;;;;13.17;4.00;;;;;;;;;;2091360;28;20186;-56
2022/01/30 00:42:17;;;;;;;13.63;5.23;;;;;;;;;;2081721;28;20161;-56
2022/01/30 00:43:18;;;;;;;14.83;4.47;;;;;;;;;;2079307;28;20593;-55
2022/01/30 00:44:18;;;;;;;13.33;5.40;;;;;;;;;;2082938;28;20681;-58
2022/01/30 00:45:19;;;;;;;17.00;5.33;;;;;;;;;;2079488;28;20187;-57
2022/01/30 00:46:19;;;;;;;15.53;5.00;;;;;;;;;;2086106;28;20199;-54
2022/01/30 00:47:19;;;;;;;16.00;5.37;;;;;;;;;;2085566;28;20656;-57
2022/01/30 00:48:21;;;;;;;22.23;5.63;;;;;;;;;;2074202;28;20256;-55
2022/01/30 00:49:23;;;;;;;14.40;4.93;;;;;;;;;;2079231;28;20183;-56
2022/01/30 00:50:23;;;;;;;12.60;5.00;;;;;;;;;;2068152;28;20173;-56
2022/01/30 00:51:24;;;;;;;14.87;5.27;;;;;;;;;;2065542;28;20204;-56
2022/01/30 00:52:24;;;;;;;14.30;5.00;;;;;;;;;;2079043;28;20573;-57
2022/01/30 00:53:25;;;;;;;19.83;5.80;;;;;;;;;;2075889;28;20165;-56
2022/01/30 00:54:25;;;;;;;20.00;5.00;;;;;;;;;;2088318;28;20194;-58
2022/01/30 00:55:26;;;;;;;14.10;5.27;;;;;;;;;;2085784;28;20168;-57
2022/01/30 00:56:27;;;;;;;16.93;5.20;;;;;;;;;;2075362;28;20260;-55
2022/01/30 00:57:27;;;;;;;18.37;5.97;;;;;;;;;;2083026;28;20552;-55
2022/01/30 00:58:27;;;;;;;16.03;5.37;;;;;;;;;;2082305;28;20188;-54
2022/01/30 00:59:28;;;;;;;16.13;5.30;;;;;;;;;;2088141;28;20245;-55
2022/01/30 01:00:28;;;;;;;12.47;4.83;;;;;;;;;;2082419;28;20196;-58
2022/01/30 01:01:29;;;;;;;14.20;5.27;;;;;;;;;;2087171;28;20192;-54
2022/01/30 01:02:29;;;;;;;13.45;4.68;;;;;;;;;;2085483;28;20184;-57
2022/01/30 01:03:29;;;;;;;14.83;5.33;;;;;;;;;;2073855;28;20231;-54
2022/01/30 01:04:31;;;;;;;14.90;5.30;;;;;;;;;;2076020;28;20177;-55
2022/01/30 01:05:33;;;;;;;16.73;5.43;;;;;;;;;;2080958;28;20583;-57
2022/01/30 01:06:36;;;;;;;19.25;4.93;;;;;;;;;;2082332;28;20179;-57
2022/01/30 01:07:41;;;;;;;19.40;5.47;;;;;;;;;;2079979;28;20173;-56
2022/01/30 01:10:00;;;;;;;8.80;4.45;;;;;;;;;;2076076;28;20165;-57
2022/01/30 01:23:54;;;;;;;15.03;4.53;;;;;;;;;;2084038;28;20172;-57
2022/01/30 01:24:55;;;;;;;20.73;5.20;;;;;;;;;;2090911;28;20192;-56
2022/01/30 01:25:56;;;;;;;10.17;5.10;;;;;;;;;;2075755;28;20219;-57
2022/01/30 01:26:56;;;;;;;16.87;5.60;;;;;;;;;;2084073;28;20184;-57
2022/01/30 01:27:56;;;;;;;12.60;4.37;;;;;;;;;;2082329;28;20172;-56
2022/01/30 01:28:56;;;;;;;14.30;4.90;;;;;;;;;;2076957;28;20239;-56
2022/01/30 01:29:57;;;;;;;13.33;4.53;;;;;;;;;;2083354;28;20196;-58
2022/01/30 01:30:57;;;;;;;13.90;4.40;;;;;;;;;;2085502;28;20196;-58
2022/01/30 01:31:58;;;;;;;11.83;4.60;;;;;;;;;;2067091;28;20210;-60
2022/01/30 01:33:01;;;;;;;16.93;5.13;;;;;;;;;;2060040;28;20222;-57
2022/01/30 01:35:08;;;;;;;15.20;4.67;;;;;;;;;;2072334;28;20200;-59
2022/01/30 01:36:08;;;;;;;14.23;4.43;;;;;;;;;;2082240;28;20611;-56
2022/01/30 01:37:11;;;;;;;9.63;4.20;;;;;;;;;;2089132;28;20183;-58
2022/01/30 01:38:13;;;;;;;15.30;5.00;;;;;;;;;;2074585;28;20181;-57
2022/01/30 01:39:13;;;;;;;13.00;5.10;;;;;;;;;;2076235;28;20177;-56
2022/01/30 01:40:14;;;;;;;20.43;4.17;;;;;;;;;;2080423;28;20180;-58
2022/01/30 01:41:19;;;;;;;14.97;4.77;;;;;;;;;;2075548;28;20177;-57
2022/01/30 01:42:19;;;;;;;14.40;5.23;;;;;;;;;;2081180;28;20180;-55
2022/01/30 01:43:20;;;;;;;11.90;4.63;;;;;;;;;;2083504;28;20713;-58
2022/01/30 01:44:32;;;;;;;16.10;4.87;;;;;;;;;;2075906;28;20223;-57
2022/01/30 01:45:36;;;;;;;13.87;5.57;;;;;;;;;;2080905;28;20243;-57
2022/01/30 01:46:39;;;;;;;11.87;5.30;;;;;;;;;;2077066;28;20244;-58
2022/01/30 01:47:39;;;;;;;19.43;5.27;;;;;;;;;;2069246;28;20184;-56
2022/01/30 01:48:41;;;;;;;13.63;4.50;;;;;;;;;;2085426;28;20310;-57
2022/01/30 01:49:42;;;;;;;14.60;4.83;;;;;;;;;;2089596;28;20175;-55
2022/01/30 01:50:45;;;;;;;14.60;5.27;;;;;;;;;;2092105;28;20167;-54
2022/01/30 01:52:01;;;;;;;15.67;5.77;;;;;;;;;;2093157;28;20612;-56
2022/01/30 01:53:01;;;;;;;17.37;5.60;;;;;;;;;;2092104;28;20163;-56
2022/01/30 01:54:01;;;;;;;19.83;5.40;;;;;;;;;;2091621;28;20168;-56
2022/01/30 01:55:02;;;;;;;15.43;5.23;;;;;;;;;;2080767;28;20177;-57
2022/01/30 01:56:04;;;;;;;15.13;4.93;;;;;;;;;;2084266;28;20180;-57
2022/01/30 01:57:04;;;;;;;15.20;4.50;;;;;;;;;;2083635;28;20184;-58
2022/01/30 01:58:26;;;;;;;15.43;5.63;;;;;;;;;;2083946;28;20276;-57
2022/01/30 01:59:45;;;;;;;17.33;4.80;;;;;;;;;;2084689;28;20588;-58
2022/01/30 02:01:04;;;;;;;15.87;4.67;;;;;;;;;;2081583;28;20188;-55
2022/01/30 02:02:05;;;;;;;12.10;4.50;;;;;;;;;;2087220;28;20619;-54
2022/01/30 02:03:05;;;;;;;16.30;5.10;;;;;;;;;;2076758;28;20614;-55
2022/01/30 02:04:06;;;;;;;17.00;4.53;;;;;;;;;;2090169;28;20353;-56
2022/01/30 02:05:07;;;;;;;15.60;4.33;;;;;;;;;;2089363;28;20179;-54
2022/01/30 02:06:12;;;;;;;17.43;4.90;;;;;;;;;;2082001;28;20184;-57
2022/01/30 02:08:35;;;;;;;15.37;4.43;;;;;;;;;;2081653;28;20180;-53
2022/01/30 02:09:37;;;;;;;13.97;4.27;;;;;;;;;;2074669;28;20539;-55
2022/01/30 02:10:52;;;;;;;13.33;4.43;;;;;;;;;;2080798;28;20206;-56
2022/01/30 02:11:54;;;;;;;11.90;4.57;;;;;;;;;;2075741;28;20188;-55
2022/01/30 02:13:07;;;;;;;11.83;4.73;;;;;;;;;;2081809;28;20337;-56
2022/01/30 02:24:13;;;;;;;19.80;5.33;;;;;;;;;;2086021;28;20180;-54
2022/01/30 02:26:36;;;;;;;13.67;4.33;;;;;;;;;;2077296;28;20683;-57
2022/01/30 02:27:38;;;;;;;14.97;4.23;;;;;;;;;;2079673;28;20180;-56
2022/01/30 02:28:38;;;;;;;11.13;5.10;;;;;;;;;;2072955;28;20704;-54
2022/01/30 02:29:38;;;;;;;18.77;5.43;;;;;;;;;;2082168;28;20184;-57
2022/01/30 02:30:44;;;;;;;12.87;5.10;;;;;;;;;;2083172;28;20652;-57
2022/01/30 02:31:45;;;;;;;16.77;4.40;;;;;;;;;;2073629;28;20781;-53
2022/01/30 02:32:48;;;;;;;10.67;4.27;;;;;;;;;;2081179;28;20210;-56
2022/01/30 02:33:48;;;;;;;15.00;4.33;;;;;;;;;;2072870;28;20555;-55
2022/01/30 02:34:48;;;;;;;23.90;5.30;;;;;;;;;;2080675;28;20183;-53
2022/01/30 02:35:48;;;;;;;15.63;4.83;;;;;;;;;;2081816;28;20175;-55
2022/01/30 02:36:51;;;;;;;18.10;4.87;;;;;;;;;;2076333;28;20264;-56
2022/01/30 02:37:54;;;;;;;11.60;4.73;;;;;;;;;;2079688;28;20167;-56
2022/01/30 02:38:58;;;;;;;17.20;5.07;;;;;;;;;;2074168;28;20583;-55
2022/01/30 02:39:58;;;;;;;12.77;5.47;;;;;;;;;;2078652;28;20646;-54
2022/01/30 02:40:59;;;;;;;13.67;5.17;;;;;;;;;;2079773;28;20191;-56
2022/01/30 02:41:59;;;;;;;13.90;4.73;;;;;;;;;;2079516;28;20232;-55
2022/01/30 02:43:00;;;;;;;15.97;5.00;;;;;;;;;;2080223;28;20176;-53
2022/01/30 02:44:19;;;;;;;18.53;5.87;;;;;;;;;;2071582;28;20561;-54
2022/01/30 02:45:22;;;;;;;15.77;4.60;;;;;;;;;;2079853;28;20219;-53
2022/01/30 02:46:32;;;;;;;14.53;5.00;;;;;;;;;;2080090;28;20698;-55
2022/01/30 02:48:48;;;;;;;14.20;4.97;;;;;;;;;;2081754;28;20176;-58
2022/01/30 02:50:11;;;;;;;14.17;5.30;;;;;;;;;;2080988;28;20172;-56
2022/01/30 02:51:15;;;;;;;16.30;4.73;;;;;;;;;;2085128;28;20258;-56
2022/01/30 02:52:15;;;;;;;16.33;4.67;;;;;;;;;;2085525;28;20680;-54
2022/01/30 02:53:16;;;;;;;12.00;4.03;;;;;;;;;;2087699;28;20175;-52
2022/01/30 02:54:17;;;;;;;15.57;5.13;;;;;;;;;;2085153;28;20196;-53
2022/01/30 02:55:17;;;;;;;18.97;5.47;;;;;;;;;;2081037;28;20272;-57
2022/01/30 02:56:17;;;;;;;15.03;6.13;;;;;;;;;;2072292;28;20255;-56
2022/01/30 02:57:18;;;;;;;14.10;4.63;;;;;;;;;;2070343;28;20876;-54
2022/01/30 02:58:20;;;;;;;9.70;4.40;;;;;;;;;;2078220;28;20168;-57
2022/01/30 02:59:21;;;;;;;13.23;5.57;;;;;;;;;;2078507;28;20177;-54
2022/01/30 03:00:21;;;;;;;13.40;5.27;;;;;;;;;;2076174;28;20192;-55
2022/01/30 03:01:21;;;;;;;19.37;5.07;;;;;;;;;;2077563;28;20212;-56
2022/01/30 03:02:22;;;;;;;11.43;4.47;;;;;;;;;;2074526;28;20169;-55
2022/01/30 03:03:22;;;;;;;19.30;5.20;;;;;;;;;;2083226;28;20198;-56
2022/01/30 03:04:22;;;;;;;15.63;4.93;;;;;;;;;;2082673;28;20176;-56
2022/01/30 03:05:23;;;;;;;10.33;4.27;;;;;;;;;;2083411;28;20176;-54
2022/01/30 03:06:23;;;;;;;16.60;4.77;;;;;;;;;;2075467;28;20177;-57
2022/01/30 03:07:24;;;;;;;16.00;4.83;;;;;;;;;;2080810;28;20183;-55
2022/01/30 03:08:29;;;;;;;16.37;4.53;;;;;;;;;;2088818;28;20184;-57
2022/01/30 03:09:29;;;;;;;12.77;5.37;;;;;;;;;;2094668;28;20199;-56
2022/01/30 03:10:31;;;;;;;17.93;5.27;;;;;;;;;;2082378;28;20683;-54
2022/01/30 03:11:31;;;;;;;15.07;5.03;;;;;;;;;;2080390;28;20187;-57
2022/01/30 03:12:31;;;;;;;17.30;4.63;;;;;;;;;;2083476;28;20179;-55
2022/01/30 03:13:31;;;;;;;13.43;4.90;;;;;;;;;;2072553;28;20619;-57
2022/01/30 03:14:32;;;;;;;13.97;4.30;;;;;;;;;;2069373;28;20242;-57
2022/01/30 03:15:32;;;;;;;17.80;4.73;;;;;;;;;;2071084;28;20229;-54
2022/01/30 03:16:32;;;;;;;12.37;5.07;;;;;;;;;;2080916;28;20179;-57
2022/01/30 03:17:33;;;;;;;9.80;4.77;;;;;;;;;;2081302;28;20176;-55
2022/01/30 03:18:33;;;;;;;13.37;4.67;;;;;;;;;;2072626;28;20203;-53
2022/01/30 03:19:33;;;;;;;14.17;4.60;;;;;;;;;;2072980;28;20724;-54
2022/01/30 03:20:33;;;;;;;17.80;5.17;;;;;;;;;;2074951;28;20179;-53
2022/01/30 03:21:34;;;;;;;14.20;5.20;;;;;;;;;;2094151;28;20655;-58
2022/01/30 03:22:34;;;;;;;18.40;5.17;;;;;;;;;;2081845;28;20176;-57
2022/01/30 03:23:38;;;;;;;22.73;5.63;;;;;;;;;;2079670;28;20169;-57
2022/01/30 03:24:39;;;;;;;16.70;5.00;;;;;;;;;;2078323;28;20172;-54
2022/01/30 03:25:57;;;;;;;13.93;4.50;;;;;;;;;;2073199;28;20234;-55
2022/01/30 03:27:24;;;;;;;15.53;4.90;;;;;;;;;;2081426;28;20548;-54
2022/01/30 03:28:31;;;;;;;16.30;5.17;;;;;;;;;;2073711;28;20169;-57
2022/01/30 03:29:49;;;;;;;11.80;4.53;;;;;;;;;;2073518;28;20180;-54
2022/01/30 03:30:58;;;;;;;17.17;4.93;;;;;;;;;;2075880;28;20184;-56
2022/01/30 03:32:19;;;;;;;15.17;5.10;;;;;;;;;;2083201;28;20175;-54
2022/01/30 03:33:20;;;;;;;15.73;5.50;;;;;;;;;;2080171;28;20176;-54
2022/01/30 03:34:20;;;;;;;20.27;5.97;;;;;;;;;;2085628;28;20171;-54
2022/01/30 03:35:24;;;;;;;16.53;5.10;;;;;;;;;;2087052;28;20182;-56
2022/01/30 03:36:25;;;;;;;20.10;5.20;;;;;;;;;;2070764;28;20728;-56
2022/01/30 03:37:26;;;;;;;15.00;4.97;;;;;;;;;;2084404;28;20233;-53
2022/01/30 03:38:27;;;;;;;12.57;4.30;;;;;;;;;;2087126;28;20172;-55
2022/01/30 03:39:27;;;;;;;18.43;5.80;;;;;;;;;;2074640;28;20180;-56
2022/01/30 03:40:29;;;;;;;24.40;5.67;;;;;;;;;;2077314;28;20175;-53
2022/01/30 03:41:30;;;;;;;12.80;5.17;;;;;;;;;;2071281;28;20189;-57
2022/01/30 03:42:30;;;;;;;16.57;4.67;;;;;;;;;;2078344;28;20254;-53
2022/01/30 03:43:30;;;;;;;16.70;4.97;;;;;;;;;;2077726;28;20242;-53
2022/01/30 03:44:31;;;;;;;12.77;4.77;;;;;;;;;;2076010;28;20271;-54
2022/01/30 03:45:32;;;;;;;10.23;5.30;;;;;;;;;;2075821;28;20180;-55
2022/01/30 03:46:32;;;;;;;19.83;5.30;;;;;;;;;;2076742;28;20200;-56
2022/01/30 03:47:33;;;;;;;20.03;4.90;;;;;;;;;;2081038;28;20764;-55
2022/01/30 03:48:33;;;;;;;16.20;5.17;;;;;;;;;;2082513;28;20397;-53
2022/01/30 03:49:39;;;;;;;23.00;6.33;;;;;;;;;;2087494;28;20172;-53
2022/01/30 03:50:40;;;;;;;16.90;5.80;;;;;;;;;;2072387;28;20234;-53
2022/01/30 03:51:40;;;;;;;14.03;5.17;;;;;;;;;;2085849;28;20200;-55
2022/01/30 03:52:54;;;;;;;20.87;5.67;;;;;;;;;;2081361;28;20164;-53
2022/01/30 03:53:55;;;;;;;14.83;4.83;;;;;;;;;;2077802;28;20224;-54
2022/01/30 03:54:55;;;;;;;18.03;4.87;;;;;;;;;;2069342;28;20703;-52
2022/01/30 03:55:55;;;;;;;12.57;4.97;;;;;;;;;;2077295;28;20687;-53
2022/01/30 03:57:01;;;;;;;18.93;5.83;;;;;;;;;;2070949;28;20263;-56
2022/01/30 03:58:02;;;;;;;12.53;4.97;;;;;;;;;;2072087;28;20199;-53
2022/01/30 03:59:04;;;;;;;15.60;5.23;;;;;;;;;;2077845;28;20603;-56
2022/01/30 04:00:06;;;;;;;15.77;5.20;;;;;;;;;;2072813;28;20207;-55
2022/01/30 04:01:06;;;;;;;14.27;5.07;;;;;;;;;;2075706;28;20196;-53
2022/01/30 04:02:07;;;;;;;17.37;4.37;;;;;;;;;;2079816;28;20176;-55
2022/01/30 04:03:08;;;;;;;16.10;4.73;;;;;;;;;;2081720;28;20194;-55
2022/01/30 04:04:08;;;;;;;13.80;5.10;;;;;;;;;;2074147;28;20599;-54
2022/01/30 04:05:08;;;;;;;12.03;4.83;;;;;;;;;;2075740;28;20226;-52
2022/01/30 04:06:09;;;;;;;18.83;4.80;;;;;;;;;;2086798;28;20216;-56
2022/01/30 04:07:11;;;;;;;16.73;5.57;;;;;;;;;;2073728;28;20176;-54
2022/01/30 04:08:28;;;;;;;17.73;4.70;;;;;;;;;;2084489;28;20667;-55
2022/01/30 04:09:48;;;;;;;21.73;5.40;;;;;;;;;;2080206;28;20199;-53
2022/01/30 04:10:55;;;;;;;14.60;5.53;;;;;;;;;;2078474;28;20251;-54
2022/01/30 04:12:07;;;;;;;16.20;4.90;;;;;;;;;;2085573;28;20171;-54
2022/01/30 04:13:34;;;;;;;14.73;5.60;;;;;;;;;;2076453;28;20649;-56
2022/01/30 04:14:43;;;;;;;15.53;4.90;;;;;;;;;;2081690;28;20320;-56
2022/01/30 04:15:57;;;;;;;13.20;4.37;;;;;;;;;;2077649;28;20179;-57
2022/01/30 04:17:11;;;;;;;15.30;4.77;;;;;;;;;;2080379;28;20207;-53
2022/01/30 04:18:30;;;;;;;13.63;4.73;;;;;;;;;;2087087;28;20152;-56
2022/01/30 04:19:49;;;;;;;11.53;4.60;;;;;;;;;;2078672;28;20196;-53
2022/01/30 04:21:10;;;;;;;19.83;4.90;;;;;;;;;;2086647;28;20246;-54
2022/01/30 04:22:30;;;;;;;14.93;4.70;;;;;;;;;;2078841;28;20677;-55
2022/01/30 04:23:49;;;;;;;12.70;5.13;;;;;;;;;;2075535;28;20766;-54
2022/01/30 04:25:00;;;;;;;13.33;4.57;;;;;;;;;;2083099;28;20180;-54
2022/01/30 04:26:27;;;;;;;14.23;4.40;;;;;;;;;;2074417;28;20189;-53
2022/01/30 04:27:43;;;;;;;13.30;4.80;;;;;;;;;;2089263;28;20171;-54
2022/01/30 04:29:04;;;;;;;12.33;4.40;;;;;;;;;;2071356;28;20231;-55
2022/01/30 04:30:23;;;;;;;14.93;4.53;;;;;;;;;;2078879;28;20199;-56
2022/01/30 04:31:59;;;;;;;11.50;4.37;;;;;;;;;;2065966;28;20222;-57
2022/01/30 04:33:13;;;;;;;12.60;5.03;;;;;;;;;;2068557;28;20648;-55
2022/01/30 04:34:41;;;;;;;13.27;4.53;;;;;;;;;;2047475;28;20199;-55
2022/01/30 04:36:09;;;;;;;12.53;4.30;;;;;;;;;;2081398;28;20708;-57
2022/01/30 04:39:36;;;;;;;13.13;4.63;;;;;;;;;;2084588;28;20720;-56
2022/01/30 04:56:07;;;;;;;16.20;5.03;;;;;;;;;;2084246;28;20184;-56
2022/01/30 04:57:03;;;;;;;15.83;5.00;;;;;;;;;;2077831;28;20186;-55
2022/01/30 05:00:20;;;;;;;13.57;4.70;;;;;;;;;;2079162;28;20193;-55
2022/01/30 05:01:52;;;;;;;22.00;5.67;;;;;;;;;;2083716;28;20216;-56
2022/01/30 05:06:09;;;;;;;16.63;5.03;;;;;;;;;;2085071;28;20253;-57
2022/01/30 05:07:28;;;;;;;18.23;4.87;;;;;;;;;;2085808;28;20219;-55
2022/01/30 05:09:02;;;;;;;21.27;6.30;;;;;;;;;;2080789;28;20239;-56
2022/01/30 05:10:11;;;;;;;18.00;6.57;;;;;;;;;;2081335;28;20160;-57
2022/01/30 05:11:26;;;;;;;16.97;4.73;;;;;;;;;;2084074;28;20246;-57
2022/01/30 05:12:47;;;;;;;21.30;6.67;;;;;;;;;;2082035;28;20173;-55
2022/01/30 05:14:20;;;;;;;22.13;6.30;;;;;;;;;;2078698;28;20183;-55
2022/01/30 05:15:33;;;;;;;19.07;5.10;;;;;;;;;;2083062;28;20194;-57
2022/01/30 05:16:48;;;;;;;14.73;5.87;;;;;;;;;;2069012;28;20185;-56
2022/01/30 05:17:57;;;;;;;21.20;5.67;;;;;;;;;;2071928;28;20166;-54
2022/01/30 05:19:14;;;;;;;17.33;5.87;;;;;;;;;;2086222;28;20190;-57
2022/01/30 05:20:34;;;;;;;15.43;6.93;;;;;;;;;;2091450;28;20194;-57
2022/01/30 05:21:45;;;;;;;14.73;5.90;;;;;;;;;;2080817;28;20196;-55
2022/01/30 05:23:04;;;;;;;18.70;6.50;;;;;;;;;;2081822;28;20168;-56
2022/01/30 05:24:21;;;;;;;15.17;6.00;;;;;;;;;;2080391;28;20211;-53
2022/01/30 05:25:39;;;;;;;13.30;5.43;;;;;;;;;;2075845;28;20204;-54
2022/01/30 05:26:44;;;;;;;15.07;5.50;;;;;;;;;;2074262;28;20176;-56
2022/01/30 05:28:08;;;;;;;15.33;5.90;;;;;;;;;;2071384;28;20196;-54
2022/01/30 05:29:44;;;;;;;12.87;5.10;;;;;;;;;;2074070;28;20197;-56
2022/01/30 05:30:44;;;;;;;16.67;5.27;;;;;;;;;;2073842;28;20177;-54
2022/01/30 05:32:08;;;;;;;15.40;6.00;;;;;;;;;;2071979;28;20201;-58
2022/01/30 05:33:27;;;;;;;18.27;5.80;;;;;;;;;;2076294;28;20181;-58
2022/01/30 05:34:46;;;;;;;16.10;5.83;;;;;;;;;;2079300;28;20169;-56
2022/01/30 05:35:56;;;;;;;18.07;6.20;;;;;;;;;;2086888;28;20165;-56
2022/01/30 05:37:17;;;;;;;14.13;5.60;;;;;;;;;;2082264;28;20188;-57
2022/01/30 05:38:47;;;;;;;25.23;6.40;;;;;;;;;;2077282;28;20177;-57
2022/01/30 05:40:06;;;;;;;14.97;5.57;;;;;;;;;;2078124;28;20197;-57
2022/01/30 05:41:29;;;;;;;24.17;6.70;;;;;;;;;;2082687;28;20214;-58
2022/01/30 05:42:47;;;;;;;17.77;5.77;;;;;;;;;;2076463;28;20153;-57
2022/01/30 05:44:12;;;;;;;18.80;5.87;;;;;;;;;;2080044;28;20598;-58
2022/01/30 05:45:54;;;;;;;14.63;4.53;;;;;;;;;;2072154;28;20528;-58
2022/01/30 05:47:21;;;;;;;20.23;5.47;;;;;;;;;;2084992;28;20176;-57
2022/01/30 05:48:27;;;;;;;23.07;5.90;;;;;;;;;;2073277;28;20198;-58
2022/01/30 05:49:48;;;;;;;13.60;5.47;;;;;;;;;;2074917;28;20189;-58
2022/01/30 05:51:10;;;;;;;16.43;5.73;;;;;;;;;;2087392;28;20180;-58
2022/01/30 05:52:21;;;;;;;13.10;4.97;;;;;;;;;;2074782;28;20632;-55
2022/01/30 05:53:41;;;;;;;12.90;5.23;;;;;;;;;;2078968;28;20172;-55
2022/01/30 05:54:48;;;;;;;17.13;6.47;;;;;;;;;;2067898;28;20170;-57
2022/01/30 05:55:49;;;;;;;19.33;6.17;;;;;;;;;;2084975;28;20210;-54
2022/01/30 05:56:50;;;;;;;20.67;6.37;;;;;;;;;;2080599;28;20231;-54
2022/01/30 05:57:51;;;;;;;11.53;5.17;;;;;;;;;;2082908;28;20244;-53
2022/01/30 05:58:56;;;;;;;11.53;4.67;;;;;;;;;;2081242;28;20722;-56
2022/01/30 06:00:06;;;;;;;13.27;5.63;;;;;;;;;;2083359;28;20688;-56
2022/01/30 06:01:30;;;;;;;14.27;5.50;;;;;;;;;;2081564;28;20203;-57
2022/01/30 06:02:44;;;;;;;21.87;5.80;;;;;;;;;;2091090;28;20170;-56
2022/01/30 06:03:45;;;;;;;19.53;5.90;;;;;;;;;;2079551;28;20230;-55
2022/01/30 06:04:46;;;;;;;17.30;5.90;;;;;;;;;;2072581;28;20744;-55
2022/01/30 06:05:48;;;;;;;15.03;5.57;;;;;;;;;;2067422;28;20177;-53
2022/01/30 06:06:51;;;;;;;19.73;6.57;;;;;;;;;;2081334;28;20573;-53
2022/01/30 06:07:54;;;;;;;19.63;6.40;;;;;;;;;;2068052;28;20178;-56
2022/01/30 06:09:19;;;;;;;27.37;6.10;;;;;;;;;;2088355;28;20192;-56
2022/01/30 06:10:18;;;;;;;19.00;5.53;;;;;;;;;;2081170;28;20206;-57
2022/01/30 06:11:18;;;;;;;21.67;6.07;;;;;;;;;;2076789;28;20260;-57
2022/01/30 06:12:18;;;;;;;19.83;7.10;;;;;;;;;;2077504;28;20160;-55
2022/01/30 06:13:18;;;;;;;20.83;7.03;;;;;;;;;;2086240;28;20277;-57
2022/01/30 06:14:20;;;;;;;20.33;6.77;;;;;;;;;;2076564;28;20200;-54
2022/01/30 06:15:21;;;;;;;19.70;6.03;;;;;;;;;;2073164;28;20177;-56
2022/01/30 06:16:26;;;;;;;16.80;6.13;;;;;;;;;;2080118;28;20179;-55
2022/01/30 06:17:26;;;;;;;20.67;6.20;;;;;;;;;;2072083;28;20191;-57
2022/01/30 06:18:32;;;;;;;21.67;6.73;;;;;;;;;;2087031;28;20643;-56
2022/01/30 06:19:42;;;;;;;22.13;7.10;;;;;;;;;;2089592;28;20689;-55
2022/01/30 06:21:01;;;;;;;21.00;6.67;;;;;;;;;;2080879;28;20168;-57
2022/01/30 06:22:20;;;;;;;17.33;6.23;;;;;;;;;;2081333;28;20157;-59
2022/01/30 06:23:41;;;;;;;26.27;7.20;;;;;;;;;;2088705;28;20167;-58
2022/01/30 06:24:57;;;;;;;17.33;6.97;;;;;;;;;;2078909;28;20672;-57
2022/01/30 06:26:32;;;;;;;24.87;6.47;;;;;;;;;;2084033;28;20199;-56
2022/01/30 06:27:50;;;;;;;22.17;7.03;;;;;;;;;;2075588;28;20161;-56
2022/01/30 06:29:20;;;;;;;22.97;6.43;;;;;;;;;;2083903;28;20648;-55
2022/01/30 06:30:52;;;;;;;23.00;7.03;;;;;;;;;;2064858;28;20724;-56
2022/01/30 06:32:16;;;;;;;14.20;6.67;;;;;;;;;;2083061;22;20209;-55
2022/01/30 06:33:34;;;;;;;19.67;6.37;;;;;;;;;;2071704;28;20192;-58
2022/01/30 06:34:50;;;;;;;17.37;6.10;;;;;;;;;;2071556;28;20176;-59
2022/01/30 06:36:25;;;;;;;18.93;5.80;;;;;;;;;;2073325;28;20177;-57
2022/01/30 06:37:44;;;;;;;21.67;7.17;;;;;;;;;;2080618;28;20239;-59
2022/01/30 06:38:55;;;;;;;16.10;6.60;;;;;;;;;;2072268;28;20181;-53
2022/01/30 06:40:10;;;;;;;23.87;7.20;;;;;;;;;;2074453;28;20176;-60
2022/01/30 06:41:29;;;;;;;24.40;6.20;;;;;;;;;;2078830;28;20191;-60
2022/01/30 06:42:49;;;;;;;23.20;7.33;;;;;;;;;;2072907;28;20204;-57
2022/01/30 06:44:08;;;;;;;21.00;7.30;;;;;;;;;;2073251;28;20197;-56
2022/01/30 06:45:27;;;;;;;15.93;6.50;;;;;;;;;;2071302;28;20188;-60
2022/01/30 06:47:03;;;;;;;21.47;7.03;;;;;;;;;;2064161;28;20627;-56
2022/01/30 06:48:22;;;;;;;22.30;6.70;;;;;;;;;;2064531;28;20185;-57
2022/01/30 06:49:41;;;;;;;22.33;6.60;;;;;;;;;;2077128;28;20192;-60
2022/01/30 06:50:56;;;;;;;24.73;8.80;;;;;;;;;;2066765;28;20187;-60
2022/01/30 06:52:15;;;;;;;22.97;8.00;;;;;;;;;;2073020;28;20173;-61
2022/01/30 06:53:42;;;;;;;24.43;6.27;;;;;;;;;;2071535;28;20653;-62
2022/01/30 06:55:01;;;;;;;21.23;7.50;;;;;;;;;;2073277;28;20165;-62
2022/01/30 06:56:19;;;;;;;20.60;6.83;;;;;;;;;;2068521;28;20209;-60
2022/01/30 06:57:43;;;;;;;22.13;7.00;;;;;;;;;;2071814;28;20165;-61
2022/01/30 06:59:02;;;;;;;22.13;7.47;;;;;;;;;;2066852;28;20185;-59
2022/01/30 07:00:21;;;;;;;29.90;7.67;;;;;;;;;;2066109;28;20193;-57
2022/01/30 07:01:40;;;;;;;20.67;7.60;;;;;;;;;;2072245;28;20568;-59
2022/01/30 07:03:04;;;;;;;27.80;7.73;;;;;;;;;;2055684;28;20194;-60
2022/01/30 07:04:19;;;;;;;22.00;5.93;;;;;;;;;;2064330;28;20614;-62
2022/01/30 07:05:39;;;;;;;18.77;7.00;;;;;;;;;;2074909;28;20173;-58
2022/01/30 07:06:45;;;;;;;31.73;7.57;;;;;;;;;;2066700;28;20181;-60
2022/01/30 07:07:45;;;;;;;25.40;6.73;;;;;;;;;;2063037;28;20577;-59
2022/01/30 07:08:46;;;;;;;25.93;8.17;;;;;;;;;;2072346;28;20165;-60
2022/01/30 07:09:46;;;;;;;23.43;8.13;;;;;;;;;;2072562;28;20181;-61
2022/01/30 07:10:46;;;;;;;27.33;7.67;;;;;;;;;;2072453;28;20168;-60
2022/01/30 07:11:47;;;;;;;26.83;8.37;;;;;;;;;;2065913;28;20695;-62
2022/01/30 07:12:47;;;;;;;22.17;7.93;;;;;;;;;;2072079;28;20208;-58
2022/01/30 07:13:47;;;;;;;21.57;7.30;;;;;;;;;;2073074;28;20227;-59
2022/01/30 07:14:47;;;;;;;30.03;8.13;;;;;;;;;;2065831;28;20233;-52
2022/01/30 07:15:48;;;;;;;33.63;9.43;;;;;;;;;;2064566;28;20272;-62
2022/01/30 07:16:48;;;;;;;21.20;7.47;;;;;;;;;;2065489;28;20173;-59
2022/01/30 07:17:48;;;;;;;28.67;8.00;;;;;;;;;;2070862;28;20263;-57
2022/01/30 07:18:48;;;;;;;28.20;8.37;;;;;;;;;;2066189;28;20210;-63
2022/01/30 07:19:50;;;;;;;29.70;9.03;;;;;;;;;;2065340;28;20235;-62
2022/01/30 07:20:51;;;;;;;30.83;8.10;;;;;;;;;;2072354;28;20816;-62
2022/01/30 07:21:51;;;;;;;25.80;9.13;;;;;;;;;;2072800;28;20216;-62
2022/01/30 07:22:52;;;;;;;23.57;8.13;;;;;;;;;;2068171;28;20201;-62
2022/01/30 07:23:52;;;;;;;17.30;7.10;;;;;;;;;;2068115;28;20169;-62
2022/01/30 07:24:52;;;;;;;30.77;8.60;;;;;;;;;;2073149;28;20221;-58
2022/01/30 07:25:52;;;;;;;31.57;8.50;;;;;;;;;;2072857;28;20202;-62
2022/01/30 07:26:53;;;;;;;27.93;8.60;;;;;;;;;;2059184;28;20556;-64
2022/01/30 07:27:53;;;;;;;30.83;9.47;;;;;;;;;;2064391;28;20184;-62
2022/01/30 07:28:53;;;;;;;33.00;9.43;;;;;;;;;;2067350;28;20212;-61
2022/01/30 07:29:53;;;;;;;29.10;8.13;;;;;;;;;;2056756;28;20174;-62
2022/01/30 07:30:54;;;;;;;36.03;8.80;;;;;;;;;;2069010;28;20196;-61